Time;durP1;ratioP1;P1;durP2;ratioP2;P2;SDS_P1;SDS_P2;PMS_P1;PMS_P2;Temp;Humidity;BMP_temperature;BMP_pressure;BME280_temperature;BME280_humidity;BME280_pressure;Samples;Min_cycle;Max_cycle;Signal;HPM_P1;HPM_P2
2021/01/24 00:01:14;;;;;;;13.97;9.73;;;;;;;2.41;77.41;97023.99;2226262;79;21131;-79
2021/01/24 00:04:15;;;;;;;15.57;10.00;;;;;;;2.37;77.64;97020.93;2225882;79;21170;-80
2021/01/24 00:07:18;;;;;;;13.67;9.23;;;;;;;2.33;77.79;97019.16;2225964;80;21135;-79
2021/01/24 00:10:21;;;;;;;17.85;10.45;;;;;;;2.31;77.90;97012.25;2225963;80;21142;-80
2021/01/24 00:13:25;;;;;;;14.00;9.70;;;;;;;2.28;77.80;97005.34;2225960;80;21123;-79
2021/01/24 00:16:26;;;;;;;15.70;10.40;;;;;;;2.27;77.97;97004.03;2225984;79;21120;-81
2021/01/24 00:19:27;;;;;;;15.73;10.00;;;;;;;2.25;77.93;97004.02;2225767;80;21135;-81
2021/01/24 00:22:28;;;;;;;13.93;9.60;;;;;;;2.27;78.00;97006.19;2225954;80;21139;-79
2021/01/24 00:25:29;;;;;;;17.77;11.33;;;;;;;2.28;78.07;97001.91;2226052;79;21397;-80
2021/01/24 00:28:30;;;;;;;13.67;10.40;;;;;;;2.31;78.21;96995.09;2225739;80;21122;-79
2021/01/24 00:31:31;;;;;;;14.33;9.70;;;;;;;2.31;78.00;96979.64;2225600;80;21139;-79
2021/01/24 00:34:32;;;;;;;16.07;10.70;;;;;;;2.33;77.95;96968.08;2225177;79;21134;-80
2021/01/24 00:37:36;;;;;;;18.00;11.23;;;;;;;2.35;77.96;96967.26;2225925;80;21245;-79
2021/01/24 00:40:38;;;;;;;18.40;11.70;;;;;;;2.36;77.93;96971.56;2225702;80;21401;-80
2021/01/24 00:43:40;;;;;;;18.60;11.10;;;;;;;2.35;77.99;96965.97;2225085;80;21178;-79
2021/01/24 00:46:41;;;;;;;15.63;10.40;;;;;;;2.28;78.01;96964.16;2225371;80;21139;-79
2021/01/24 00:49:42;;;;;;;16.60;10.17;;;;;;;2.26;78.12;96958.55;2225599;80;21162;-78
2021/01/24 00:52:43;;;;;;;16.73;11.70;;;;;;;2.28;78.16;96947.42;2225680;80;21131;-80
2021/01/24 00:55:44;;;;;;;16.13;11.53;;;;;;;2.32;78.19;96926.44;2225810;80;21139;-80
2021/01/24 00:58:45;;;;;;;15.60;10.10;;;;;;;2.31;78.09;96932.44;2226005;80;21126;-80
2021/01/24 01:01:47;;;;;;;13.03;10.77;;;;;;;2.23;78.00;96934.91;2225867;80;21437;-79
2021/01/24 01:04:48;;;;;;;12.90;9.57;;;;;;;2.18;77.98;96936.55;2225539;80;21135;-79
2021/01/24 01:07:49;;;;;;;12.33;8.90;;;;;;;2.10;78.16;96927.44;2225772;79;21193;-78
2021/01/24 01:10:50;;;;;;;13.80;10.03;;;;;;;2.07;78.10;96927.81;2225756;79;21123;-79
2021/01/24 01:13:51;;;;;;;18.70;11.87;;;;;;;2.01;78.24;96923.45;2225636;80;21126;-79
2021/01/24 01:16:52;;;;;;;17.27;11.37;;;;;;;1.94;78.49;96931.05;2225767;80;21134;-78
2021/01/24 01:19:53;;;;;;;18.10;11.33;;;;;;;1.86;78.42;96917.66;2225744;80;21409;-78
2021/01/24 01:22:54;;;;;;;17.63;11.43;;;;;;;1.82;78.77;96913.73;2225897;80;21170;-78
2021/01/24 01:25:55;;;;;;;16.57;10.90;;;;;;;1.76;78.82;96914.92;2225491;80;21385;-79
2021/01/24 01:28:56;;;;;;;15.47;11.17;;;;;;;1.71;78.98;96900.67;2225636;80;21135;-79
2021/01/24 01:31:57;;;;;;;17.73;12.20;;;;;;;1.68;78.96;96907.47;2225854;80;21131;-79
2021/01/24 01:34:58;;;;;;;17.87;12.20;;;;;;;1.62;79.24;96903.52;2225628;80;21103;-79
2021/01/24 01:37:59;;;;;;;15.90;11.73;;;;;;;1.59;79.44;96908.20;2225981;80;21162;-79
2021/01/24 01:41:00;;;;;;;16.77;11.53;;;;;;;1.57;79.40;96903.45;2225894;80;21396;-78
2021/01/24 01:44:01;;;;;;;16.17;13.00;;;;;;;1.53;79.41;96895.24;2225714;80;21174;-78
2021/01/24 01:47:03;;;;;;;20.23;12.97;;;;;;;1.46;79.60;96891.71;2225758;80;21154;-78
2021/01/24 01:50:04;;;;;;;14.33;11.50;;;;;;;1.39;79.84;96898.02;2225574;80;21171;-80
2021/01/24 01:53:05;;;;;;;16.20;11.93;;;;;;;1.34;79.55;96902.21;2225694;80;21189;-80
2021/01/24 01:56:06;;;;;;;16.30;11.43;;;;;;;1.35;79.59;96897.52;2225763;80;21123;-80
2021/01/24 01:59:07;;;;;;;19.27;12.70;;;;;;;1.36;79.53;96901.40;2225750;80;21134;-81
2021/01/24 02:02:08;;;;;;;16.57;12.43;;;;;;;1.41;79.57;96893.77;2225891;80;21147;-79
2021/01/24 02:05:09;;;;;;;17.93;13.00;;;;;;;1.41;79.59;96884.77;2225584;80;21159;-80
2021/01/24 02:08:10;;;;;;;15.63;11.37;;;;;;;1.38;79.45;96885.58;2225686;80;21127;-80
2021/01/24 02:11:15;;;;;;;21.93;11.90;;;;;;;1.39;79.37;96891.16;2225616;80;21127;-79
2021/01/24 02:14:16;;;;;;;15.72;12.00;;;;;;;1.38;79.42;96883.01;2225849;80;21115;-80
2021/01/24 02:17:18;;;;;;;16.07;12.50;;;;;;;1.39;79.42;96894.16;2225741;80;21088;-79
2021/01/24 02:20:19;;;;;;;15.83;11.67;;;;;;;1.38;79.42;96904.86;2225599;80;21170;-79
2021/01/24 02:23:20;;;;;;;14.17;12.00;;;;;;;1.38;79.33;96902.29;2226198;80;21166;-79
2021/01/24 02:26:24;;;;;;;33.77;21.40;;;;;;;1.39;79.31;96901.45;2225977;80;21138;-79
2021/01/24 02:29:25;;;;;;;23.53;16.00;;;;;;;1.44;79.23;96889.95;2225775;80;21130;-80
2021/01/24 02:32:26;;;;;;;15.70;12.23;;;;;;;1.44;79.14;96895.09;2225787;80;21147;-80
2021/01/24 02:35:27;;;;;;;17.07;12.67;;;;;;;1.41;79.05;96888.20;2225638;80;21373;-80
2021/01/24 02:38:28;;;;;;;18.50;11.93;;;;;;;1.42;79.01;96886.08;2225861;80;21122;-79
2021/01/24 02:41:29;;;;;;;18.80;13.00;;;;;;;1.44;79.02;96878.39;2226185;80;21150;-80
2021/01/24 02:44:30;;;;;;;16.83;11.87;;;;;;;1.47;79.06;96887.44;2225881;80;21178;-79
2021/01/24 02:47:32;;;;;;;15.47;11.97;;;;;;;1.52;79.11;96891.81;2225818;80;21130;-79
2021/01/24 02:50:33;;;;;;;14.83;11.37;;;;;;;1.58;79.05;96896.18;2225697;80;21170;-79
2021/01/24 02:53:34;;;;;;;13.67;10.87;;;;;;;1.60;78.94;96899.22;2225587;80;21134;-78
2021/01/24 02:56:36;;;;;;;16.23;11.20;;;;;;;1.63;78.85;96918.98;2226102;80;21126;-78
2021/01/24 02:59:37;;;;;;;15.93;10.80;;;;;;;1.59;78.74;96928.77;2225754;80;21421;-78
2021/01/24 03:02:38;;;;;;;14.33;11.53;;;;;;;1.56;78.80;96925.73;2225598;80;21135;-78
2021/01/24 03:05:39;;;;;;;16.77;12.60;;;;;;;1.60;78.89;96930.50;2225688;80;21350;-78
2021/01/24 03:08:41;;;;;;;16.57;11.97;;;;;;;1.70;79.00;96929.80;2225798;80;21241;-78
2021/01/24 03:11:42;;;;;;;18.67;12.17;;;;;;;1.83;78.94;96924.47;2225669;80;21123;-78
2021/01/24 03:14:43;;;;;;;14.43;11.23;;;;;;;1.90;78.85;96925.86;2225575;80;21130;-78
2021/01/24 03:17:44;;;;;;;12.40;10.47;;;;;;;1.97;78.68;96924.66;2225595;80;21138;-80
2021/01/24 03:20:45;;;;;;;13.73;11.53;;;;;;;2.02;78.54;96921.31;2226027;80;21170;-80
2021/01/24 03:23:46;;;;;;;13.33;11.20;;;;;;;2.06;78.37;96910.64;2225811;80;21435;-80
2021/01/24 03:26:47;;;;;;;12.73;10.90;;;;;;;2.13;78.28;96893.16;2225671;80;21151;-79
2021/01/24 03:29:49;;;;;;;13.57;10.47;;;;;;;2.17;78.25;96887.20;2225758;80;21150;-79
2021/01/24 03:32:50;;;;;;;18.43;12.43;;;;;;;2.18;78.21;96890.22;2225663;80;21119;-79
2021/01/24 03:35:51;;;;;;;16.47;11.43;;;;;;;2.22;78.17;96885.55;2225634;80;21158;-79
2021/01/24 03:38:52;;;;;;;17.30;13.17;;;;;;;2.24;78.02;96872.28;2225776;80;21150;-78
2021/01/24 03:41:53;;;;;;;22.83;14.20;;;;;;;2.28;77.94;96868.03;2225663;80;21237;-79
2021/01/24 03:44:54;;;;;;;23.47;15.30;;;;;;;2.30;77.87;96859.48;2225826;80;21217;-80
2021/01/24 03:47:55;;;;;;;26.83;17.07;;;;;;;2.28;77.71;96860.31;2225918;80;21440;-79
2021/01/24 03:50:56;;;;;;;21.30;14.03;;;;;;;2.32;77.79;96855.22;2234380;80;21138;-79
2021/01/24 03:53:57;;;;;;;17.00;12.23;;;;;;;2.34;77.58;96853.53;2238347;80;21124;-79
2021/01/24 03:56:58;;;;;;;19.47;12.53;;;;;;;2.32;77.58;96859.08;2238645;80;21400;-79
2021/01/24 04:00:00;;;;;;;15.20;11.97;;;;;;;2.32;77.60;96851.36;2238643;80;21139;-79
2021/01/24 04:03:01;;;;;;;20.63;11.87;;;;;;;2.31;77.46;96848.77;2238709;80;21276;-78
2021/01/24 04:06:02;;;;;;;17.87;12.47;;;;;;;2.25;77.49;96849.55;2238411;80;21126;-78
2021/01/24 04:09:03;;;;;;;16.23;12.47;;;;;;;2.30;77.64;96838.89;2238436;80;21118;-79
2021/01/24 04:12:04;;;;;;;16.60;11.57;;;;;;;2.33;77.64;96844.50;2238626;80;21134;-80
2021/01/24 04:15:05;;;;;;;15.33;11.63;;;;;;;2.33;77.59;96849.65;2238687;80;21192;-80
2021/01/24 04:18:06;;;;;;;16.83;12.23;;;;;;;2.34;77.69;96840.66;2238886;80;21130;-79
2021/01/24 04:21:07;;;;;;;17.03;12.57;;;;;;;2.39;77.62;96826.12;2238415;80;21138;-79
2021/01/24 04:24:08;;;;;;;16.13;12.33;;;;;;;2.42;77.50;96819.72;2238681;80;21126;-78
2021/01/24 04:27:10;;;;;;;14.17;11.77;;;;;;;2.41;77.51;96819.70;2238740;80;21373;-79
2021/01/24 04:30:11;;;;;;;17.10;11.90;;;;;;;2.41;77.45;96824.43;2238523;80;21158;-80
2021/01/24 04:33:12;;;;;;;18.63;12.07;;;;;;;2.41;77.31;96820.56;2223593;80;21142;-80
2021/01/24 04:36:13;;;;;;;17.13;12.70;;;;;;;2.46;77.28;96816.76;2238436;80;21122;-79
2021/01/24 04:39:14;;;;;;;19.50;12.67;;;;;;;2.50;77.17;96811.66;2238567;80;21142;-79
2021/01/24 04:42:15;;;;;;;18.87;14.43;;;;;;;2.50;77.06;96810.37;2238453;80;21521;-79
2021/01/24 04:45:18;;;;;;;18.30;14.07;;;;;;;2.42;76.98;96804.27;2238055;80;21573;-80
2021/01/24 04:48:20;;;;;;;13.63;11.27;;;;;;;2.36;76.92;96793.04;2237768;80;21424;-79
2021/01/24 04:51:21;;;;;;;19.27;13.13;;;;;;;2.37;77.13;96791.77;2237585;80;21158;-79
2021/01/24 04:54:22;;;;;;;23.37;13.97;;;;;;;2.35;77.15;96784.87;2237094;80;21126;-79
2021/01/24 04:57:23;;;;;;;13.53;11.40;;;;;;;2.35;77.73;96784.45;2238327;80;21436;-80
2021/01/24 05:00:27;;;;;;;14.33;11.57;;;;;;;2.37;77.24;96770.31;2238490;80;21095;-80
2021/01/24 05:03:28;;;;;;;13.40;10.70;;;;;;;2.34;77.27;96762.55;2238363;80;21275;-79
2021/01/24 05:06:29;;;;;;;16.83;11.80;;;;;;;2.31;77.22;96760.81;2238518;80;21110;-79
2021/01/24 05:09:30;;;;;;;13.20;10.20;;;;;;;2.27;77.17;96768.06;2238049;80;21130;-78
2021/01/24 05:12:31;;;;;;;12.23;10.00;;;;;;;2.22;77.25;96774.45;2237680;80;21122;-79
2021/01/24 05:15:32;;;;;;;13.30;10.20;;;;;;;2.22;77.27;96773.16;2238137;80;21142;-80
2021/01/24 05:18:33;;;;;;;15.33;10.17;;;;;;;2.22;77.30;96759.00;2237820;80;21491;-79
2021/01/24 05:21:34;;;;;;;13.70;10.53;;;;;;;2.24;77.24;96755.16;2237972;80;21229;-79
2021/01/24 05:24:35;;;;;;;15.13;10.80;;;;;;;2.23;77.22;96756.00;2238283;80;21177;-78
2021/01/24 05:27:39;;;;;;;14.03;10.70;;;;;;;2.24;77.25;96762.88;2238970;80;21150;-80
2021/01/24 05:30:40;;;;;;;14.33;10.40;;;;;;;2.20;77.30;96762.41;2238408;80;21114;-78
2021/01/24 05:33:41;;;;;;;13.90;10.37;;;;;;;2.20;77.23;96760.70;2238016;80;21135;-78
2021/01/24 05:36:42;;;;;;;13.10;10.53;;;;;;;2.22;77.34;96762.00;2238176;80;21134;-80
2021/01/24 05:39:43;;;;;;;13.03;10.00;;;;;;;2.28;77.28;96760.78;2238178;80;21130;-81
2021/01/24 05:42:44;;;;;;;13.13;10.37;;;;;;;2.33;77.33;96753.97;2238433;80;21083;-79
2021/01/24 05:45:45;;;;;;;12.63;10.90;;;;;;;2.37;77.27;96754.44;2238454;80;21126;-81
2021/01/24 05:48:46;;;;;;;15.03;10.53;;;;;;;2.38;77.18;96751.02;2238306;80;21147;-80
2021/01/24 05:51:47;;;;;;;16.20;10.77;;;;;;;2.43;77.16;96748.06;2229370;79;21151;-80
2021/01/24 05:54:48;;;;;;;16.33;11.07;;;;;;;2.46;77.11;96760.97;2224421;80;21110;-79
2021/01/24 05:57:50;;;;;;;17.00;11.53;;;;;;;2.47;77.02;96760.55;2225382;80;21116;-80
2021/01/24 06:00:51;;;;;;;17.17;11.30;;;;;;;2.50;77.05;96756.71;2225299;80;21556;-81
2021/01/24 06:03:52;;;;;;;13.80;10.57;;;;;;;2.54;77.01;96759.75;2225415;80;21511;-83
2021/01/24 06:06:53;;;;;;;15.00;11.50;;;;;;;2.59;76.99;96749.08;2225164;80;21122;-83
2021/01/24 06:09:54;;;;;;;13.10;11.43;;;;;;;2.63;77.07;96737.98;2224764;80;21147;-82
2021/01/24 06:12:55;;;;;;;18.07;13.00;;;;;;;2.68;77.07;96727.72;2225545;80;21106;-82
2021/01/24 06:15:56;;;;;;;16.77;13.07;;;;;;;2.69;76.93;96724.30;2225924;80;21091;-82
2021/01/24 06:18:59;;;;;;;18.47;13.73;;;;;;;2.62;76.85;96728.95;2225867;80;21127;-82
2021/01/24 06:22:00;;;;;;;16.10;12.73;;;;;;;2.57;76.99;96727.59;2226179;80;21133;-82
2021/01/24 06:25:01;;;;;;;18.10;12.83;;;;;;;2.52;77.01;96721.53;2225936;80;21194;-80
2021/01/24 06:28:03;;;;;;;18.73;13.17;;;;;;;2.51;77.19;96718.52;2226437;80;21146;-82
2021/01/24 06:31:04;;;;;;;21.23;14.33;;;;;;;2.48;77.16;96715.50;2225286;80;21377;-83
2021/01/24 06:34:06;;;;;;;18.00;13.80;;;;;;;2.44;77.35;96716.73;2224831;80;21131;-83
2021/01/24 06:37:07;;;;;;;21.10;14.03;;;;;;;2.45;77.42;96718.47;2225922;80;21200;-82
2021/01/24 06:40:08;;;;;;;23.70;14.50;;;;;;;2.43;77.34;96720.16;2226079;80;21162;-82
2021/01/24 06:43:09;;;;;;;19.03;13.10;;;;;;;2.39;77.35;96719.69;2225397;80;21171;-82
2021/01/24 06:46:10;;;;;;;18.73;13.80;;;;;;;2.39;77.55;96724.84;2225440;80;21461;-81
2021/01/24 06:49:11;;;;;;;19.30;13.17;;;;;;;2.42;77.69;96724.45;2225939;80;21123;-81
2021/01/24 06:52:12;;;;;;;17.90;12.87;;;;;;;2.47;77.55;96727.06;2225940;80;21166;-81
2021/01/24 06:55:13;;;;;;;17.27;12.97;;;;;;;2.46;77.55;96734.36;2226040;80;21417;-83
2021/01/24 06:58:14;;;;;;;16.93;12.03;;;;;;;2.46;77.63;96734.36;2225191;80;21135;-82
2021/01/24 07:01:15;;;;;;;17.97;13.60;;;;;;;2.49;77.70;96737.82;2225160;80;21406;-82
2021/01/24 07:04:16;;;;;;;15.80;12.70;;;;;;;2.49;77.60;96740.40;2223917;80;21479;-82
2021/01/24 07:07:18;;;;;;;16.70;13.17;;;;;;;2.52;77.81;96738.27;2224998;80;21417;-81
2021/01/24 07:10:19;;;;;;;21.27;14.10;;;;;;;2.58;77.84;96739.63;2225345;80;21135;-84
2021/01/24 07:13:20;;;;;;;21.90;14.10;;;;;;;2.63;77.66;96731.97;2225614;80;21131;-83
2021/01/24 07:16:21;;;;;;;22.43;14.90;;;;;;;2.63;77.58;96733.25;2226396;80;21139;-83
2021/01/24 07:19:22;;;;;;;19.83;14.03;;;;;;;2.63;77.58;96728.11;2226940;80;21241;-84
2021/01/24 07:22:23;;;;;;;21.27;15.13;;;;;;;2.66;77.63;96722.55;2226479;80;21150;-81
2021/01/24 07:25:25;;;;;;;22.87;15.77;;;;;;;2.68;77.71;96716.99;2226524;80;21308;-81
2021/01/24 07:28:26;;;;;;;18.60;13.60;;;;;;;2.72;78.02;96712.73;2225966;80;21242;-82
2021/01/24 07:31:27;;;;;;;18.93;12.10;;;;;;;2.75;78.02;96711.04;2226253;80;21123;-81
2021/01/24 07:34:28;;;;;;;19.97;13.70;;;;;;;2.77;77.60;96702.03;2227001;80;21389;-82
2021/01/24 07:37:29;;;;;;;21.07;15.73;;;;;;;2.80;77.64;96701.63;2227534;80;21122;-82
2021/01/24 07:40:30;;;;;;;18.00;12.37;;;;;;;2.83;77.53;96690.06;2226847;80;21099;-81
2021/01/24 07:43:31;;;;;;;16.37;12.10;;;;;;;2.87;77.42;96694.39;2226897;80;21174;-81
2021/01/24 07:46:32;;;;;;;18.37;13.27;;;;;;;2.92;77.39;96683.25;2227049;80;21139;-81
2021/01/24 07:49:34;;;;;;;16.43;13.80;;;;;;;2.96;77.32;96685.86;2226080;80;21260;-82
2021/01/24 07:52:35;;;;;;;21.07;15.03;;;;;;;2.94;77.35;96684.13;2237438;80;21127;-81
2021/01/24 07:55:36;;;;;;;17.93;13.13;;;;;;;2.95;77.47;96683.27;2238822;80;21174;-82
2021/01/24 07:58:37;;;;;;;20.53;14.53;;;;;;;3.02;77.61;96680.75;2238805;80;21157;-82
2021/01/24 08:01:38;;;;;;;24.03;15.47;;;;;;;3.11;77.46;96670.50;2238864;80;21107;-82
2021/01/24 08:04:39;;;;;;;29.67;17.43;;;;;;;3.17;77.33;96672.25;2238436;80;21492;-81
2021/01/24 08:07:41;;;;;;;24.47;16.40;;;;;;;3.17;77.26;96674.40;2238785;80;21130;-81
2021/01/24 08:10:43;;;;;;;21.17;14.80;;;;;;;3.21;77.25;96671.41;2238753;80;21138;-81
2021/01/24 08:13:44;;;;;;;22.67;15.10;;;;;;;3.26;77.36;96668.44;2238632;80;21126;-81
2021/01/24 08:16:45;;;;;;;20.87;14.43;;;;;;;3.25;77.26;96675.73;2239081;80;21674;-81
2021/01/24 08:19:46;;;;;;;23.93;14.27;;;;;;;3.18;77.26;96686.44;2238485;80;21385;-81
2021/01/24 08:22:47;;;;;;;34.17;24.33;;;;;;;3.09;77.54;96704.84;2238319;80;21090;-81
2021/01/24 08:25:48;;;;;;;55.10;33.90;;;;;;;3.05;77.73;96726.30;2238310;80;21162;-81
2021/01/24 08:28:49;;;;;;;65.43;37.60;;;;;;;2.91;77.64;96717.17;2239165;80;21149;-83
2021/01/24 08:31:50;;;;;;;59.70;34.80;;;;;;;2.80;77.63;96686.60;2239145;80;21142;-81
2021/01/24 08:34:54;;;;;;;60.73;33.43;;;;;;;2.85;77.92;96690.08;2239120;80;21146;-80
2021/01/24 08:37:55;;;;;;;63.83;36.68;;;;;;;2.73;77.91;96702.44;2239431;80;21138;-81
2021/01/24 08:40:56;;;;;;;55.53;34.03;;;;;;;2.74;78.32;96696.44;2239020;80;21425;-81
2021/01/24 08:43:57;;;;;;;59.40;37.27;;;;;;;2.75;78.21;96711.47;2238762;80;21429;-83
2021/01/24 08:46:58;;;;;;;65.97;39.20;;;;;;;2.74;78.38;96713.61;2238940;80;21115;-82
2021/01/24 08:49:59;;;;;;;61.70;38.17;;;;;;;2.76;78.40;96707.61;2239029;80;21123;-83
2021/01/24 08:53:01;;;;;;;63.40;39.67;;;;;;;2.85;78.57;96684.92;2249615;79;21279;-82
2021/01/24 08:56:05;;;;;;;49.13;30.60;;;;;;;2.93;78.22;96645.03;2249691;79;21264;-83
2021/01/24 08:59:07;;;;;;;45.87;29.20;;;;;;;2.91;77.84;96666.06;2249418;79;21117;-81
2021/01/24 09:02:10;;;;;;;43.33;26.73;;;;;;;2.85;77.95;96674.61;2228066;79;21393;-81
2021/01/24 09:05:13;;;;;;;33.00;23.53;;;;;;;2.91;78.10;96673.37;2225637;80;21428;-81
2021/01/24 09:08:18;;;;;;;27.10;20.27;;;;;;;3.02;78.02;96679.46;2225722;80;21150;-82
2021/01/24 09:11:19;;;;;;;27.33;20.47;;;;;;;3.06;77.89;96682.92;2225439;80;21104;-80
2021/01/24 09:14:20;;;;;;;24.17;16.80;;;;;;;3.26;77.76;96676.59;2225990;80;21127;-82
2021/01/24 09:17:24;;;;;;;49.47;27.40;;;;;;;3.36;77.56;96718.34;2226375;80;21127;-80
2021/01/24 09:20:26;;;;;;;46.88;29.12;;;;;;;3.20;77.63;96718.67;2226028;80;21421;-80
2021/01/24 09:23:27;;;;;;;40.33;24.30;;;;;;;3.06;77.61;96726.73;2225858;80;21178;-81
2021/01/24 09:26:28;;;;;;;33.10;19.60;;;;;;;2.88;77.93;96741.63;2225873;80;21378;-81
2021/01/24 09:29:29;;;;;;;21.33;13.93;;;;;;;2.66;78.15;96742.30;2226132;80;21087;-82
2021/01/24 09:35:38;;;;;;;23.83;17.57;;;;;;;2.38;78.48;96740.72;2166809;81;21146;-81
2021/01/24 09:38:39;;;;;;;24.93;16.53;;;;;;;2.32;78.75;96744.52;2156204;83;21301;-81
2021/01/24 09:41:40;;;;;;;33.17;21.27;;;;;;;2.28;78.83;96744.47;2156597;83;21548;-80
2021/01/24 09:44:41;;;;;;;28.93;19.10;;;;;;;2.27;78.84;96742.74;2156167;83;21174;-81
2021/01/24 09:47:42;;;;;;;38.63;24.67;;;;;;;2.34;79.04;96745.39;2156111;83;21143;-81
2021/01/24 09:50:45;;;;;;;25.43;17.53;;;;;;;2.31;78.83;96750.51;2156518;82;21194;-81
2021/01/24 09:53:46;;;;;;;26.97;18.30;;;;;;;2.27;78.82;96735.02;2153502;83;21095;-81
2021/01/24 09:56:47;;;;;;;31.60;21.27;;;;;;;2.15;78.91;96737.03;2164662;82;21408;-82
2021/01/24 09:59:48;;;;;;;38.03;25.17;;;;;;;2.10;79.09;96737.41;2143091;82;21166;-81
2021/01/24 10:02:50;;;;;;;36.60;23.67;;;;;;;2.11;78.97;96736.14;2178003;82;21245;-81
2021/01/24 10:05:51;;;;;;;35.70;25.83;;;;;;;2.20;78.99;96731.52;2161615;82;21606;-81
2021/01/24 10:08:52;;;;;;;34.57;23.87;;;;;;;2.28;78.92;96732.46;2164377;82;21408;-81
2021/01/24 10:11:53;;;;;;;43.70;27.40;;;;;;;2.37;78.87;96740.28;2154166;83;21158;-80
2021/01/24 10:14:54;;;;;;;36.33;25.10;;;;;;;2.41;78.78;96743.32;2164577;82;21139;-82
2021/01/24 10:17:55;;;;;;;29.77;18.93;;;;;;;2.42;78.60;96742.90;2154007;83;21130;-80
2021/01/24 10:20:56;;;;;;;36.83;25.17;;;;;;;2.36;78.42;96741.13;2165181;82;21158;-80
2021/01/24 10:24:00;;;;;;;36.50;24.77;;;;;;;2.32;78.58;96734.22;2144573;82;21138;-82
2021/01/24 10:27:01;;;;;;;39.47;24.87;;;;;;;2.32;78.61;96741.94;2178246;82;21252;-81
2021/01/24 10:30:04;;;;;;;47.10;27.63;;;;;;;2.34;78.56;96740.25;2166265;82;21528;-81
2021/01/24 10:33:05;;;;;;;37.90;23.90;;;;;;;2.43;78.45;96730.03;2169454;82;21142;-81
2021/01/24 10:36:10;;;;;;;37.10;24.27;;;;;;;2.57;78.21;96735.31;2137202;83;21159;-80
2021/01/24 10:39:11;;;;;;;34.50;21.73;;;;;;;2.76;78.29;96732.52;2165949;82;21146;-80
2021/01/24 10:42:15;;;;;;;25.43;18.40;;;;;;;2.98;77.92;96732.27;2138596;83;21139;-80
2021/01/24 10:45:17;;;;;;;28.42;20.60;;;;;;;3.12;77.58;96722.48;2167799;82;21663;-82
2021/01/24 10:48:18;;;;;;;24.13;16.60;;;;;;;3.25;77.42;96730.30;2150681;82;21146;-81
2021/01/24 10:51:19;;;;;;;21.57;15.63;;;;;;;3.28;76.93;96740.64;2172257;82;21301;-81
2021/01/24 10:54:26;;;;;;;26.57;18.33;;;;;;;3.08;76.92;96749.09;2140320;83;21131;-84
2021/01/24 10:57:27;;;;;;;23.60;15.33;;;;;;;3.03;77.08;96748.63;2170182;82;21086;-82
2021/01/24 11:00:31;;;;;;;22.57;15.53;;;;;;;2.97;77.02;96744.28;2153495;82;21130;-81
2021/01/24 11:03:32;;;;;;;24.13;17.63;;;;;;;2.84;77.33;96749.77;2177689;82;21291;-82
2021/01/24 11:06:33;;;;;;;25.87;17.77;;;;;;;2.86;77.64;96749.35;2165140;82;21848;-81
2021/01/24 11:09:34;;;;;;;29.07;20.53;;;;;;;2.90;77.54;96754.11;2173828;82;21284;-80
2021/01/24 11:12:35;;;;;;;26.90;18.00;;;;;;;2.92;77.57;96756.27;2147789;82;21138;-81
2021/01/24 11:15:36;;;;;;;23.17;16.07;;;;;;;2.94;77.61;96764.88;2164613;82;21138;-82
2021/01/24 11:18:38;;;;;;;25.30;18.43;;;;;;;2.97;77.00;96771.77;2153990;83;21130;-81
2021/01/24 11:21:39;;;;;;;28.13;19.87;;;;;;;2.90;77.21;96769.99;2167852;82;21150;-83
2021/01/24 11:24:40;;;;;;;28.50;17.57;;;;;;;2.84;77.06;96771.66;2153026;82;21169;-83
2021/01/24 11:27:41;;;;;;;33.70;18.97;;;;;;;2.86;77.05;96775.12;2167984;82;21311;-80
2021/01/24 11:30:42;;;;;;;29.13;18.53;;;;;;;2.97;77.12;96776.50;2144454;83;21144;-82
2021/01/24 11:33:46;;;;;;;39.07;19.03;;;;;;;2.90;76.58;96773.43;2167858;82;21416;-81
2021/01/24 11:36:47;;;;;;;36.00;18.63;;;;;;;2.82;77.00;96780.23;2145506;83;21107;-80
2021/01/24 11:39:50;;;;;;;31.30;17.60;;;;;;;2.80;77.08;96782.80;2170256;82;21540;-82
2021/01/24 11:42:53;;;;;;;26.80;17.93;;;;;;;2.77;76.83;96784.48;2158109;82;21142;-82
2021/01/24 11:45:54;;;;;;;27.17;16.00;;;;;;;2.73;76.97;96789.16;2178193;82;21550;-81
2021/01/24 11:48:55;;;;;;;24.53;16.03;;;;;;;2.66;76.79;96786.95;2163796;82;21138;-81
2021/01/24 11:51:59;;;;;;;23.87;14.83;;;;;;;2.67;77.03;96792.55;2168278;82;21178;-82
2021/01/24 11:55:00;;;;;;;36.03;15.67;;;;;;;2.72;76.74;96792.16;2157586;82;21315;-80
2021/01/24 11:58:02;;;;;;;26.87;16.10;;;;;;;2.81;77.10;96798.69;2164372;82;21135;-81
2021/01/24 12:01:03;;;;;;;22.97;14.20;;;;;;;2.91;77.04;96803.50;2153578;83;21146;-80
2021/01/24 12:04:04;;;;;;;22.50;14.60;;;;;;;2.93;76.49;96798.36;2163766;82;21182;-80
2021/01/24 12:07:05;;;;;;;24.37;16.27;;;;;;;3.03;76.59;96790.73;2153507;83;21457;-80
2021/01/24 12:10:06;;;;;;;19.37;14.00;;;;;;;3.26;76.20;96783.59;2166360;82;21126;-81
2021/01/24 12:13:07;;;;;;;17.87;12.90;;;;;;;3.41;75.56;96788.86;2161235;82;21110;-81
2021/01/24 12:16:08;;;;;;;19.73;12.43;;;;;;;3.49;75.63;96801.42;2173617;82;21268;-82
2021/01/24 12:19:09;;;;;;;20.37;11.90;;;;;;;3.32;74.93;96800.41;2161528;82;21146;-82
2021/01/24 12:22:10;;;;;;;21.10;13.47;;;;;;;3.20;75.35;96807.62;2177851;82;21248;-81
2021/01/24 12:25:12;;;;;;;19.10;11.57;;;;;;;3.06;75.65;96807.93;2158850;82;21175;-81
2021/01/24 12:28:13;;;;;;;23.23;14.47;;;;;;;3.00;75.93;96817.77;2170454;82;21523;-82
2021/01/24 12:31:14;;;;;;;30.73;15.13;;;;;;;2.93;75.73;96822.42;2161788;82;21186;-81
2021/01/24 12:34:17;;;;;;;17.40;11.93;;;;;;;2.97;75.89;96820.31;2178162;82;21692;-81
2021/01/24 12:37:19;;;;;;;16.57;12.23;;;;;;;2.95;75.55;96827.59;2154531;82;21151;-82
2021/01/24 12:40:22;;;;;;;22.87;13.50;;;;;;;2.84;76.00;96832.64;2168138;82;21129;-82
2021/01/24 12:43:24;;;;;;;19.77;12.57;;;;;;;2.84;76.41;96824.91;2164668;82;21150;-81
2021/01/24 12:46:25;;;;;;;22.27;13.33;;;;;;;2.92;76.18;96830.14;2170922;82;21264;-83
2021/01/24 12:49:26;;;;;;;21.97;14.43;;;;;;;2.91;76.06;96831.85;2161153;82;21135;-80
2021/01/24 12:52:30;;;;;;;23.10;13.53;;;;;;;2.94;75.65;96837.03;2167373;82;21162;-82
2021/01/24 12:55:31;;;;;;;26.70;14.57;;;;;;;2.90;76.12;96838.28;2168186;82;21389;-82
2021/01/24 12:58:32;;;;;;;22.57;13.47;;;;;;;2.97;76.38;96843.51;2168025;82;21150;-82
2021/01/24 13:01:33;;;;;;;29.87;16.50;;;;;;;2.95;75.91;96854.23;2168046;82;21573;-81
2021/01/24 13:04:37;;;;;;;33.73;20.63;;;;;;;2.91;76.16;96867.06;2154305;83;21300;-81
2021/01/24 13:07:38;;;;;;;34.07;18.37;;;;;;;2.92;76.19;96869.66;2165861;82;21300;-83
2021/01/24 13:10:39;;;;;;;31.83;17.30;;;;;;;2.96;76.13;96871.84;2166473;82;21138;-82
2021/01/24 13:13:42;;;;;;;36.33;17.83;;;;;;;2.99;76.03;96874.02;2168057;82;21106;-82
2021/01/24 13:16:43;;;;;;;31.47;17.63;;;;;;;3.03;75.85;96886.09;2168250;82;21429;-81
2021/01/24 13:19:44;;;;;;;38.97;21.20;;;;;;;2.85;75.16;96894.50;2168137;82;21178;-82
2021/01/24 13:22:45;;;;;;;33.13;19.67;;;;;;;2.70;75.77;96895.62;2168162;82;21111;-82
2021/01/24 13:25:46;;;;;;;39.37;21.27;;;;;;;2.62;75.88;96895.95;2168110;82;21440;-82
2021/01/24 13:28:47;;;;;;;37.33;20.47;;;;;;;2.64;76.23;96888.25;2168266;82;21265;-83
2021/01/24 13:31:48;;;;;;;33.17;21.30;;;;;;;2.71;76.30;96893.48;2167494;82;21388;-81
2021/01/24 13:34:49;;;;;;;31.27;18.53;;;;;;;2.76;76.12;96898.69;2167917;82;21154;-83
2021/01/24 13:37:51;;;;;;;32.23;19.60;;;;;;;2.74;76.00;96895.23;2168219;82;21528;-81
2021/01/24 13:40:52;;;;;;;41.87;24.07;;;;;;;2.71;76.10;96901.21;2167880;82;21143;-83
2021/01/24 13:43:53;;;;;;;32.13;19.67;;;;;;;2.76;76.33;96894.40;2168063;82;21142;-82
2021/01/24 13:46:54;;;;;;;36.07;21.60;;;;;;;2.83;76.32;96906.50;2168106;82;21146;-81
2021/01/24 13:49:55;;;;;;;30.63;22.13;;;;;;;2.86;76.21;96900.52;2168149;82;21114;-82
2021/01/24 13:52:56;;;;;;;28.20;18.60;;;;;;;2.91;76.29;96909.59;2167976;82;21451;-80
2021/01/24 13:55:57;;;;;;;29.00;18.10;;;;;;;2.88;75.81;96907.84;2167956;82;21174;-82
2021/01/24 13:58:58;;;;;;;31.23;21.17;;;;;;;2.74;75.95;96910.27;2168183;82;21150;-82
2021/01/24 14:02:02;;;;;;;30.93;21.73;;;;;;;2.72;76.43;96907.23;2168220;82;21154;-82
2021/01/24 14:05:05;;;;;;;34.73;20.12;;;;;;;2.69;76.26;96918.78;2168242;82;21453;-83